sensor_id;sensor_type;location;lat;lon;timestamp;P1;durP1;ratioP1;P2;durP2;ratioP2
9508;SDS011;4792;50.088;8.122;2023-02-24T00:00:10;44.40;;;19.37;;
9508;SDS011;4792;50.088;8.122;2023-02-24T00:03:00;37.23;;;17.93;;
9508;SDS011;4792;50.088;8.122;2023-02-24T00:05:32;37.40;;;18.13;;
9508;SDS011;4792;50.088;8.122;2023-02-24T00:08:01;37.60;;;18.53;;
9508;SDS011;4792;50.088;8.122;2023-02-24T00:10:29;38.90;;;18.87;;
9508;SDS011;4792;50.088;8.122;2023-02-24T00:12:58;38.13;;;19.07;;
9508;SDS011;4792;50.088;8.122;2023-02-24T00:15:27;40.63;;;19.73;;
9508;SDS011;4792;50.088;8.122;2023-02-24T00:17:55;39.03;;;19.60;;
9508;SDS011;4792;50.088;8.122;2023-02-24T00:20:23;36.23;;;17.97;;
9508;SDS011;4792;50.088;8.122;2023-02-24T00:22:51;38.57;;;18.43;;
9508;SDS011;4792;50.088;8.122;2023-02-24T00:25:19;38.73;;;18.53;;
9508;SDS011;4792;50.088;8.122;2023-02-24T00:27:47;39.07;;;18.67;;
9508;SDS011;4792;50.088;8.122;2023-02-24T00:30:15;37.33;;;18.13;;
9508;SDS011;4792;50.088;8.122;2023-02-24T00:32:45;38.13;;;18.50;;
9508;SDS011;4792;50.088;8.122;2023-02-24T00:35:13;41.80;;;19.40;;
9508;SDS011;4792;50.088;8.122;2023-02-24T00:37:40;39.13;;;20.17;;
9508;SDS011;4792;50.088;8.122;2023-02-24T00:40:09;37.97;;;19.90;;
9508;SDS011;4792;50.088;8.122;2023-02-24T00:42:38;39.53;;;18.80;;
9508;SDS011;4792;50.088;8.122;2023-02-24T00:45:08;35.37;;;18.40;;
9508;SDS011;4792;50.088;8.122;2023-02-24T00:47:36;42.17;;;20.00;;
9508;SDS011;4792;50.088;8.122;2023-02-24T00:50:07;46.13;;;21.23;;
9508;SDS011;4792;50.088;8.122;2023-02-24T00:52:35;40.33;;;18.53;;
9508;SDS011;4792;50.088;8.122;2023-02-24T00:55:03;36.93;;;19.80;;
9508;SDS011;4792;50.088;8.122;2023-02-24T00:57:39;39.40;;;20.40;;
9508;SDS011;4792;50.088;8.122;2023-02-24T01:00:08;41.40;;;19.83;;
9508;SDS011;4792;50.088;8.122;2023-02-24T01:02:42;41.30;;;19.70;;
9508;SDS011;4792;50.088;8.122;2023-02-24T01:05:13;39.10;;;19.20;;
9508;SDS011;4792;50.088;8.122;2023-02-24T01:07:41;41.57;;;20.37;;
9508;SDS011;4792;50.088;8.122;2023-02-24T01:10:10;42.30;;;20.40;;
9508;SDS011;4792;50.088;8.122;2023-02-24T01:12:38;40.43;;;18.63;;
9508;SDS011;4792;50.088;8.122;2023-02-24T01:15:15;37.80;;;19.33;;
9508;SDS011;4792;50.088;8.122;2023-02-24T01:17:43;37.57;;;19.57;;
9508;SDS011;4792;50.088;8.122;2023-02-24T01:20:12;38.77;;;19.67;;
9508;SDS011;4792;50.088;8.122;2023-02-24T01:22:44;38.03;;;18.40;;
9508;SDS011;4792;50.088;8.122;2023-02-24T01:25:12;41.63;;;19.67;;
9508;SDS011;4792;50.088;8.122;2023-02-24T01:27:40;35.97;;;19.43;;
9508;SDS011;4792;50.088;8.122;2023-02-24T01:30:09;37.67;;;18.90;;
9508;SDS011;4792;50.088;8.122;2023-02-24T01:32:41;40.53;;;18.93;;
9508;SDS011;4792;50.088;8.122;2023-02-24T01:35:09;37.90;;;18.37;;
9508;SDS011;4792;50.088;8.122;2023-02-24T01:37:41;37.77;;;18.13;;
9508;SDS011;4792;50.088;8.122;2023-02-24T01:40:11;39.23;;;18.33;;
9508;SDS011;4792;50.088;8.122;2023-02-24T01:42:46;40.40;;;18.60;;
9508;SDS011;4792;50.088;8.122;2023-02-24T01:45:16;35.07;;;18.27;;
9508;SDS011;4792;50.088;8.122;2023-02-24T01:47:46;41.13;;;19.37;;
9508;SDS011;4792;50.088;8.122;2023-02-24T01:50:15;39.30;;;18.50;;
9508;SDS011;4792;50.088;8.122;2023-02-24T01:52:48;38.67;;;19.33;;
9508;SDS011;4792;50.088;8.122;2023-02-24T01:55:22;37.73;;;16.87;;
9508;SDS011;4792;50.088;8.122;2023-02-24T01:57:54;36.37;;;16.47;;
9508;SDS011;4792;50.088;8.122;2023-02-24T02:00:22;40.10;;;16.90;;
9508;SDS011;4792;50.088;8.122;2023-02-24T02:03:16;37.10;;;16.53;;
9508;SDS011;4792;50.088;8.122;2023-02-24T02:05:48;34.00;;;15.73;;
9508;SDS011;4792;50.088;8.122;2023-02-24T02:08:19;35.27;;;16.57;;
9508;SDS011;4792;50.088;8.122;2023-02-24T02:10:50;37.00;;;17.07;;
9508;SDS011;4792;50.088;8.122;2023-02-24T02:13:24;36.70;;;17.63;;
9508;SDS011;4792;50.088;8.122;2023-02-24T02:15:55;37.03;;;17.47;;
9508;SDS011;4792;50.088;8.122;2023-02-24T02:18:35;35.87;;;17.17;;
9508;SDS011;4792;50.088;8.122;2023-02-24T02:24:20;35.40;;;16.03;;
9508;SDS011;4792;50.088;8.122;2023-02-24T02:27:05;36.70;;;17.63;;
9508;SDS011;4792;50.088;8.122;2023-02-24T02:30:05;35.77;;;17.13;;
9508;SDS011;4792;50.088;8.122;2023-02-24T02:35:40;37.73;;;17.30;;
9508;SDS011;4792;50.088;8.122;2023-02-24T02:38:12;39.97;;;17.63;;
9508;SDS011;4792;50.088;8.122;2023-02-24T02:40:42;38.07;;;17.17;;
9508;SDS011;4792;50.088;8.122;2023-02-24T02:43:15;39.17;;;17.63;;
9508;SDS011;4792;50.088;8.122;2023-02-24T02:45:45;34.53;;;17.03;;
9508;SDS011;4792;50.088;8.122;2023-02-24T02:48:16;38.93;;;18.00;;
9508;SDS011;4792;50.088;8.122;2023-02-24T02:50:48;37.00;;;16.87;;
9508;SDS011;4792;50.088;8.122;2023-02-24T02:53:22;35.83;;;16.83;;
9508;SDS011;4792;50.088;8.122;2023-02-24T02:55:53;37.77;;;17.93;;
9508;SDS011;4792;50.088;8.122;2023-02-24T02:58:23;37.20;;;18.23;;
9508;SDS011;4792;50.088;8.122;2023-02-24T03:00:54;36.57;;;17.73;;
9508;SDS011;4792;50.088;8.122;2023-02-24T03:03:28;38.07;;;18.23;;
9508;SDS011;4792;50.088;8.122;2023-02-24T03:06:01;33.63;;;16.23;;
9508;SDS011;4792;50.088;8.122;2023-02-24T03:08:32;40.17;;;17.77;;
9508;SDS011;4792;50.088;8.122;2023-02-24T03:11:03;37.93;;;16.70;;
9508;SDS011;4792;50.088;8.122;2023-02-24T03:13:33;33.83;;;17.37;;
9508;SDS011;4792;50.088;8.122;2023-02-24T03:16:03;34.90;;;17.93;;
9508;SDS011;4792;50.088;8.122;2023-02-24T03:18:33;39.23;;;18.80;;
9508;SDS011;4792;50.088;8.122;2023-02-24T03:21:06;50.67;;;23.87;;
9508;SDS011;4792;50.088;8.122;2023-02-24T03:23:36;39.10;;;18.80;;
9508;SDS011;4792;50.088;8.122;2023-02-24T03:26:12;38.23;;;18.10;;
9508;SDS011;4792;50.088;8.122;2023-02-24T03:28:46;40.23;;;19.67;;
9508;SDS011;4792;50.088;8.122;2023-02-24T03:31:19;38.47;;;18.03;;
9508;SDS011;4792;50.088;8.122;2023-02-24T03:33:50;42.53;;;19.43;;
9508;SDS011;4792;50.088;8.122;2023-02-24T03:36:27;44.07;;;20.20;;
9508;SDS011;4792;50.088;8.122;2023-02-24T03:38:55;36.83;;;18.83;;
9508;SDS011;4792;50.088;8.122;2023-02-24T03:41:24;41.27;;;20.00;;
9508;SDS011;4792;50.088;8.122;2023-02-24T03:43:55;40.47;;;19.80;;
9508;SDS011;4792;50.088;8.122;2023-02-24T03:46:24;46.40;;;19.80;;
9508;SDS011;4792;50.088;8.122;2023-02-24T03:48:54;42.57;;;19.77;;
9508;SDS011;4792;50.088;8.122;2023-02-24T03:51:30;38.93;;;19.27;;
9508;SDS011;4792;50.088;8.122;2023-02-24T03:54:01;41.87;;;20.30;;
9508;SDS011;4792;50.088;8.122;2023-02-24T03:56:37;41.40;;;19.87;;
9508;SDS011;4792;50.088;8.122;2023-02-24T03:59:13;42.47;;;20.63;;
9508;SDS011;4792;50.088;8.122;2023-02-24T04:01:46;40.00;;;19.37;;
9508;SDS011;4792;50.088;8.122;2023-02-24T04:04:23;46.37;;;20.13;;
9508;SDS011;4792;50.088;8.122;2023-02-24T04:06:55;44.70;;;20.40;;
9508;SDS011;4792;50.088;8.122;2023-02-24T04:09:27;43.87;;;20.83;;
9508;SDS011;4792;50.088;8.122;2023-02-24T04:12:01;44.03;;;19.57;;
9508;SDS011;4792;50.088;8.122;2023-02-24T04:14:38;42.10;;;20.73;;
9508;SDS011;4792;50.088;8.122;2023-02-24T04:17:09;42.50;;;20.53;;
9508;SDS011;4792;50.088;8.122;2023-02-24T04:19:45;41.17;;;20.40;;
9508;SDS011;4792;50.088;8.122;2023-02-24T04:22:16;43.37;;;20.67;;
9508;SDS011;4792;50.088;8.122;2023-02-24T04:24:50;40.83;;;20.17;;
9508;SDS011;4792;50.088;8.122;2023-02-24T04:27:20;38.97;;;20.10;;
9508;SDS011;4792;50.088;8.122;2023-02-24T04:29:49;37.73;;;20.43;;
9508;SDS011;4792;50.088;8.122;2023-02-24T04:32:20;39.03;;;20.27;;
9508;SDS011;4792;50.088;8.122;2023-02-24T04:34:50;43.33;;;21.07;;
9508;SDS011;4792;50.088;8.122;2023-02-24T04:37:19;41.10;;;20.63;;
9508;SDS011;4792;50.088;8.122;2023-02-24T04:39:48;42.03;;;20.30;;
9508;SDS011;4792;50.088;8.122;2023-02-24T04:42:17;40.50;;;20.77;;
9508;SDS011;4792;50.088;8.122;2023-02-24T04:44:47;42.87;;;21.67;;
9508;SDS011;4792;50.088;8.122;2023-02-24T04:47:15;41.37;;;21.03;;
9508;SDS011;4792;50.088;8.122;2023-02-24T04:49:43;41.97;;;21.10;;
9508;SDS011;4792;50.088;8.122;2023-02-24T04:52:11;39.77;;;20.43;;
9508;SDS011;4792;50.088;8.122;2023-02-24T04:54:41;41.80;;;22.30;;
9508;SDS011;4792;50.088;8.122;2023-02-24T04:57:10;44.23;;;20.97;;
9508;SDS011;4792;50.088;8.122;2023-02-24T04:59:38;48.50;;;21.57;;
9508;SDS011;4792;50.088;8.122;2023-02-24T05:02:06;41.80;;;20.87;;
9508;SDS011;4792;50.088;8.122;2023-02-24T05:04:33;45.77;;;22.17;;
9508;SDS011;4792;50.088;8.122;2023-02-24T05:07:04;44.70;;;22.60;;
9508;SDS011;4792;50.088;8.122;2023-02-24T05:09:32;46.03;;;23.13;;
9508;SDS011;4792;50.088;8.122;2023-02-24T05:12:01;41.97;;;20.87;;
9508;SDS011;4792;50.088;8.122;2023-02-24T05:14:30;50.73;;;23.20;;
9508;SDS011;4792;50.088;8.122;2023-02-24T05:16:58;46.17;;;23.43;;
9508;SDS011;4792;50.088;8.122;2023-02-24T05:19:26;46.37;;;22.13;;
9508;SDS011;4792;50.088;8.122;2023-02-24T05:22:11;48.53;;;23.40;;
9508;SDS011;4792;50.088;8.122;2023-02-24T05:24:42;51.20;;;23.97;;
9508;SDS011;4792;50.088;8.122;2023-02-24T05:27:14;48.53;;;23.23;;
9508;SDS011;4792;50.088;8.122;2023-02-24T05:29:42;46.53;;;23.10;;
9508;SDS011;4792;50.088;8.122;2023-02-24T05:32:10;51.30;;;23.23;;
9508;SDS011;4792;50.088;8.122;2023-02-24T05:34:38;42.50;;;22.03;;
9508;SDS011;4792;50.088;8.122;2023-02-24T05:37:08;47.33;;;23.00;;
9508;SDS011;4792;50.088;8.122;2023-02-24T05:39:36;46.30;;;22.47;;
9508;SDS011;4792;50.088;8.122;2023-02-24T05:42:04;50.87;;;23.97;;
9508;SDS011;4792;50.088;8.122;2023-02-24T05:44:34;44.37;;;24.17;;
9508;SDS011;4792;50.088;8.122;2023-02-24T05:47:02;47.00;;;23.40;;
9508;SDS011;4792;50.088;8.122;2023-02-24T05:49:31;44.97;;;23.23;;
9508;SDS011;4792;50.088;8.122;2023-02-24T05:52:02;46.17;;;23.23;;
9508;SDS011;4792;50.088;8.122;2023-02-24T05:54:33;48.57;;;24.40;;
9508;SDS011;4792;50.088;8.122;2023-02-24T05:57:03;46.33;;;24.57;;
9508;SDS011;4792;50.088;8.122;2023-02-24T05:59:32;49.13;;;24.97;;
9508;SDS011;4792;50.088;8.122;2023-02-24T06:02:02;52.50;;;25.30;;
9508;SDS011;4792;50.088;8.122;2023-02-24T06:04:33;54.37;;;25.33;;
9508;SDS011;4792;50.088;8.122;2023-02-24T06:07:17;56.27;;;26.50;;
9508;SDS011;4792;50.088;8.122;2023-02-24T06:09:46;48.07;;;24.73;;
9508;SDS011;4792;50.088;8.122;2023-02-24T06:12:15;52.20;;;26.60;;
9508;SDS011;4792;50.088;8.122;2023-02-24T06:14:46;56.47;;;25.53;;
9508;SDS011;4792;50.088;8.122;2023-02-24T06:17:14;46.70;;;24.97;;
9508;SDS011;4792;50.088;8.122;2023-02-24T06:19:44;52.70;;;26.03;;
9508;SDS011;4792;50.088;8.122;2023-02-24T06:22:12;48.33;;;25.40;;
9508;SDS011;4792;50.088;8.122;2023-02-24T06:24:41;50.60;;;25.53;;
9508;SDS011;4792;50.088;8.122;2023-02-24T06:27:10;48.50;;;24.67;;
9508;SDS011;4792;50.088;8.122;2023-02-24T06:29:43;46.67;;;24.90;;
9508;SDS011;4792;50.088;8.122;2023-02-24T06:32:12;46.10;;;25.20;;
9508;SDS011;4792;50.088;8.122;2023-02-24T06:34:40;48.33;;;24.60;;
9508;SDS011;4792;50.088;8.122;2023-02-24T06:37:09;50.37;;;24.93;;
9508;SDS011;4792;50.088;8.122;2023-02-24T06:39:39;46.20;;;24.60;;
9508;SDS011;4792;50.088;8.122;2023-02-24T06:42:08;49.27;;;23.10;;
9508;SDS011;4792;50.088;8.122;2023-02-24T06:44:37;41.47;;;22.13;;
9508;SDS011;4792;50.088;8.122;2023-02-24T06:47:07;45.73;;;21.27;;
9508;SDS011;4792;50.088;8.122;2023-02-24T06:49:39;42.47;;;21.83;;
9508;SDS011;4792;50.088;8.122;2023-02-24T06:52:08;41.47;;;20.00;;
9508;SDS011;4792;50.088;8.122;2023-02-24T06:54:36;40.80;;;20.83;;
9508;SDS011;4792;50.088;8.122;2023-02-24T06:57:04;39.20;;;21.57;;
9508;SDS011;4792;50.088;8.122;2023-02-24T06:59:35;41.13;;;20.87;;
9508;SDS011;4792;50.088;8.122;2023-02-24T07:02:02;44.93;;;22.73;;
9508;SDS011;4792;50.088;8.122;2023-02-24T07:04:33;39.57;;;20.53;;
9508;SDS011;4792;50.088;8.122;2023-02-24T07:07:10;38.40;;;19.33;;
9508;SDS011;4792;50.088;8.122;2023-02-24T07:09:39;37.17;;;19.00;;
9508;SDS011;4792;50.088;8.122;2023-02-24T07:12:09;41.60;;;21.23;;
9508;SDS011;4792;50.088;8.122;2023-02-24T07:14:38;41.67;;;19.00;;
9508;SDS011;4792;50.088;8.122;2023-02-24T07:17:06;38.33;;;20.17;;
9508;SDS011;4792;50.088;8.122;2023-02-24T07:19:35;38.03;;;19.97;;
9508;SDS011;4792;50.088;8.122;2023-02-24T07:22:03;36.33;;;20.03;;
9508;SDS011;4792;50.088;8.122;2023-02-24T07:24:33;36.20;;;20.03;;
9508;SDS011;4792;50.088;8.122;2023-02-24T07:27:03;38.37;;;19.77;;
9508;SDS011;4792;50.088;8.122;2023-02-24T07:29:32;41.37;;;21.63;;
9508;SDS011;4792;50.088;8.122;2023-02-24T07:32:01;40.03;;;21.37;;
9508;SDS011;4792;50.088;8.122;2023-02-24T07:34:31;48.93;;;23.73;;
9508;SDS011;4792;50.088;8.122;2023-02-24T07:37:00;75.17;;;41.27;;
9508;SDS011;4792;50.088;8.122;2023-02-24T07:39:35;40.50;;;20.90;;
9508;SDS011;4792;50.088;8.122;2023-02-24T07:42:04;45.00;;;22.40;;
9508;SDS011;4792;50.088;8.122;2023-02-24T07:44:32;37.13;;;19.80;;
9508;SDS011;4792;50.088;8.122;2023-02-24T07:47:00;43.00;;;21.37;;
9508;SDS011;4792;50.088;8.122;2023-02-24T07:49:33;37.47;;;21.07;;
9508;SDS011;4792;50.088;8.122;2023-02-24T07:52:01;35.93;;;19.33;;
9508;SDS011;4792;50.088;8.122;2023-02-24T07:54:29;39.20;;;20.33;;
9508;SDS011;4792;50.088;8.122;2023-02-24T07:56:58;39.33;;;19.17;;
9508;SDS011;4792;50.088;8.122;2023-02-24T07:59:27;49.47;;;24.73;;
9508;SDS011;4792;50.088;8.122;2023-02-24T08:01:55;56.73;;;29.63;;
9508;SDS011;4792;50.088;8.122;2023-02-24T08:04:24;38.17;;;19.13;;
9508;SDS011;4792;50.088;8.122;2023-02-24T08:06:54;39.27;;;19.27;;
9508;SDS011;4792;50.088;8.122;2023-02-24T08:09:24;37.73;;;21.67;;
9508;SDS011;4792;50.088;8.122;2023-02-24T08:12:37;45.00;;;21.13;;
9508;SDS011;4792;50.088;8.122;2023-02-24T08:15:08;38.27;;;19.27;;
9508;SDS011;4792;50.088;8.122;2023-02-24T08:17:43;38.50;;;20.10;;
9508;SDS011;4792;50.088;8.122;2023-02-24T08:20:13;35.77;;;19.33;;
9508;SDS011;4792;50.088;8.122;2023-02-24T08:22:55;35.70;;;19.07;;
9508;SDS011;4792;50.088;8.122;2023-02-24T08:25:23;39.20;;;18.87;;
9508;SDS011;4792;50.088;8.122;2023-02-24T08:28:03;33.90;;;18.83;;
9508;SDS011;4792;50.088;8.122;2023-02-24T08:30:36;36.70;;;18.80;;
9508;SDS011;4792;50.088;8.122;2023-02-24T08:33:06;37.67;;;18.50;;
9508;SDS011;4792;50.088;8.122;2023-02-24T08:35:37;36.33;;;19.13;;
9508;SDS011;4792;50.088;8.122;2023-02-24T08:38:11;38.43;;;19.27;;
9508;SDS011;4792;50.088;8.122;2023-02-24T08:40:42;35.50;;;17.77;;
9508;SDS011;4792;50.088;8.122;2023-02-24T08:43:23;36.70;;;18.13;;
9508;SDS011;4792;50.088;8.122;2023-02-24T08:45:59;38.73;;;18.60;;
9508;SDS011;4792;50.088;8.122;2023-02-24T08:48:30;35.10;;;18.83;;
9508;SDS011;4792;50.088;8.122;2023-02-24T08:51:06;37.97;;;18.40;;
9508;SDS011;4792;50.088;8.122;2023-02-24T08:53:37;34.63;;;18.57;;
9508;SDS011;4792;50.088;8.122;2023-02-24T08:56:07;31.47;;;17.17;;
9508;SDS011;4792;50.088;8.122;2023-02-24T08:58:39;33.37;;;17.33;;
9508;SDS011;4792;50.088;8.122;2023-02-24T09:01:14;31.07;;;16.33;;
9508;SDS011;4792;50.088;8.122;2023-02-24T09:03:50;35.33;;;19.00;;
9508;SDS011;4792;50.088;8.122;2023-02-24T09:06:20;35.33;;;17.20;;
9508;SDS011;4792;50.088;8.122;2023-02-24T09:08:52;32.57;;;16.33;;
9508;SDS011;4792;50.088;8.122;2023-02-24T09:11:39;31.00;;;15.53;;
9508;SDS011;4792;50.088;8.122;2023-02-24T09:14:11;31.63;;;15.67;;
9508;SDS011;4792;50.088;8.122;2023-02-24T09:16:53;30.83;;;14.67;;
9508;SDS011;4792;50.088;8.122;2023-02-24T09:19:36;30.97;;;16.43;;
9508;SDS011;4792;50.088;8.122;2023-02-24T09:22:23;29.23;;;15.03;;
9508;SDS011;4792;50.088;8.122;2023-02-24T09:24:59;29.87;;;15.23;;
9508;SDS011;4792;50.088;8.122;2023-02-24T09:27:46;26.20;;;14.17;;
9508;SDS011;4792;50.088;8.122;2023-02-24T09:30:20;27.87;;;15.40;;
9508;SDS011;4792;50.088;8.122;2023-02-24T09:33:09;28.10;;;15.03;;
9508;SDS011;4792;50.088;8.122;2023-02-24T09:35:48;27.43;;;15.27;;
9508;SDS011;4792;50.088;8.122;2023-02-24T09:38:18;28.33;;;15.30;;
9508;SDS011;4792;50.088;8.122;2023-02-24T09:41:02;30.50;;;14.90;;
9508;SDS011;4792;50.088;8.122;2023-02-24T09:43:51;26.07;;;13.43;;
9508;SDS011;4792;50.088;8.122;2023-02-24T09:46:26;25.90;;;14.00;;
9508;SDS011;4792;50.088;8.122;2023-02-24T09:49:04;29.60;;;14.97;;
9508;SDS011;4792;50.088;8.122;2023-02-24T09:51:34;26.57;;;13.63;;
9508;SDS011;4792;50.088;8.122;2023-02-24T09:54:11;26.00;;;14.13;;
9508;SDS011;4792;50.088;8.122;2023-02-24T09:56:41;24.60;;;13.80;;
9508;SDS011;4792;50.088;8.122;2023-02-24T09:59:18;25.77;;;13.93;;
9508;SDS011;4792;50.088;8.122;2023-02-24T10:01:55;26.83;;;14.10;;
9508;SDS011;4792;50.088;8.122;2023-02-24T10:04:38;28.07;;;13.57;;
9508;SDS011;4792;50.088;8.122;2023-02-24T10:07:15;26.67;;;13.67;;
9508;SDS011;4792;50.088;8.122;2023-02-24T10:09:45;27.37;;;13.53;;
9508;SDS011;4792;50.088;8.122;2023-02-24T10:12:18;26.80;;;13.03;;
9508;SDS011;4792;50.088;8.122;2023-02-24T10:14:50;27.27;;;13.60;;
9508;SDS011;4792;50.088;8.122;2023-02-24T10:17:41;24.57;;;13.43;;
9508;SDS011;4792;50.088;8.122;2023-02-24T10:20:14;26.13;;;13.70;;
9508;SDS011;4792;50.088;8.122;2023-02-24T10:22:57;25.37;;;13.70;;
9508;SDS011;4792;50.088;8.122;2023-02-24T10:25:28;23.80;;;12.93;;
9508;SDS011;4792;50.088;8.122;2023-02-24T10:28:10;26.03;;;13.50;;
9508;SDS011;4792;50.088;8.122;2023-02-24T10:30:47;23.77;;;12.97;;
9508;SDS011;4792;50.088;8.122;2023-02-24T10:33:29;21.83;;;12.97;;
9508;SDS011;4792;50.088;8.122;2023-02-24T10:36:04;22.60;;;13.27;;
9508;SDS011;4792;50.088;8.122;2023-02-24T10:38:35;23.97;;;12.60;;
9508;SDS011;4792;50.088;8.122;2023-02-24T10:41:07;24.00;;;12.43;;
9508;SDS011;4792;50.088;8.122;2023-02-24T10:43:36;25.57;;;12.77;;
9508;SDS011;4792;50.088;8.122;2023-02-24T10:46:21;24.47;;;13.07;;
9508;SDS011;4792;50.088;8.122;2023-02-24T10:49:09;24.80;;;12.47;;
9508;SDS011;4792;50.088;8.122;2023-02-24T10:51:46;24.20;;;13.50;;
9508;SDS011;4792;50.088;8.122;2023-02-24T10:54:19;23.10;;;11.90;;
9508;SDS011;4792;50.088;8.122;2023-02-24T10:57:06;22.03;;;12.27;;
9508;SDS011;4792;50.088;8.122;2023-02-24T10:59:41;22.10;;;11.67;;
9508;SDS011;4792;50.088;8.122;2023-02-24T11:02:43;25.27;;;12.97;;
9508;SDS011;4792;50.088;8.122;2023-02-24T11:05:37;24.77;;;13.03;;
9508;SDS011;4792;50.088;8.122;2023-02-24T11:08:30;23.40;;;12.70;;
9508;SDS011;4792;50.088;8.122;2023-02-24T11:11:20;21.23;;;11.97;;
9508;SDS011;4792;50.088;8.122;2023-02-24T11:13:55;22.13;;;12.57;;
9508;SDS011;4792;50.088;8.122;2023-02-24T11:16:45;23.77;;;12.43;;
9508;SDS011;4792;50.088;8.122;2023-02-24T11:19:32;25.57;;;13.07;;
9508;SDS011;4792;50.088;8.122;2023-02-24T11:22:05;23.83;;;12.20;;
9508;SDS011;4792;50.088;8.122;2023-02-24T11:24:35;19.67;;;11.93;;
9508;SDS011;4792;50.088;8.122;2023-02-24T11:27:04;22.20;;;12.63;;
9508;SDS011;4792;50.088;8.122;2023-02-24T11:29:37;15.03;;;9.23;;
9508;SDS011;4792;50.088;8.122;2023-02-24T11:35:01;19.30;;;10.20;;
9508;SDS011;4792;50.088;8.122;2023-02-24T11:37:36;22.17;;;10.30;;
9508;SDS011;4792;50.088;8.122;2023-02-24T11:40:11;16.63;;;9.37;;
9508;SDS011;4792;50.088;8.122;2023-02-24T11:42:46;15.00;;;9.90;;
9508;SDS011;4792;50.088;8.122;2023-02-24T11:45:24;16.43;;;10.10;;
9508;SDS011;4792;50.088;8.122;2023-02-24T11:47:57;16.97;;;10.03;;
9508;SDS011;4792;50.088;8.122;2023-02-24T11:50:34;18.90;;;9.77;;
9508;SDS011;4792;50.088;8.122;2023-02-24T11:53:25;17.20;;;10.07;;
9508;SDS011;4792;50.088;8.122;2023-02-24T11:55:59;16.97;;;9.83;;
9508;SDS011;4792;50.088;8.122;2023-02-24T11:58:31;16.20;;;8.90;;
9508;SDS011;4792;50.088;8.122;2023-02-24T12:01:05;16.67;;;10.03;;
9508;SDS011;4792;50.088;8.122;2023-02-24T12:03:39;13.30;;;8.47;;
9508;SDS011;4792;50.088;8.122;2023-02-24T12:06:14;17.37;;;9.23;;
9508;SDS011;4792;50.088;8.122;2023-02-24T12:08:47;13.87;;;8.37;;
9508;SDS011;4792;50.088;8.122;2023-02-24T12:11:19;15.87;;;9.23;;
9508;SDS011;4792;50.088;8.122;2023-02-24T12:13:55;14.03;;;8.23;;
9508;SDS011;4792;50.088;8.122;2023-02-24T12:16:27;20.30;;;11.07;;
9508;SDS011;4792;50.088;8.122;2023-02-24T12:18:59;16.93;;;9.60;;
9508;SDS011;4792;50.088;8.122;2023-02-24T12:21:33;18.80;;;9.83;;
9508;SDS011;4792;50.088;8.122;2023-02-24T12:24:04;17.60;;;9.67;;
9508;SDS011;4792;50.088;8.122;2023-02-24T12:26:38;14.53;;;9.37;;
9508;SDS011;4792;50.088;8.122;2023-02-24T12:29:15;14.67;;;9.37;;
9508;SDS011;4792;50.088;8.122;2023-02-24T12:31:53;14.93;;;8.37;;
9508;SDS011;4792;50.088;8.122;2023-02-24T12:34:31;12.90;;;7.83;;
9508;SDS011;4792;50.088;8.122;2023-02-24T12:40:14;10.73;;;7.07;;
9508;SDS011;4792;50.088;8.122;2023-02-24T12:42:50;12.63;;;8.23;;
9508;SDS011;4792;50.088;8.122;2023-02-24T12:45:25;14.10;;;7.93;;
9508;SDS011;4792;50.088;8.122;2023-02-24T12:48:02;14.00;;;8.60;;
9508;SDS011;4792;50.088;8.122;2023-02-24T12:50:37;15.23;;;9.33;;
9508;SDS011;4792;50.088;8.122;2023-02-24T12:53:14;13.80;;;8.47;;
9508;SDS011;4792;50.088;8.122;2023-02-24T12:55:48;17.27;;;9.50;;
9508;SDS011;4792;50.088;8.122;2023-02-24T12:58:23;14.73;;;8.77;;
9508;SDS011;4792;50.088;8.122;2023-02-24T13:00:56;16.13;;;9.80;;
9508;SDS011;4792;50.088;8.122;2023-02-24T13:03:34;17.33;;;10.03;;
9508;SDS011;4792;50.088;8.122;2023-02-24T13:06:08;17.07;;;9.83;;
9508;SDS011;4792;50.088;8.122;2023-02-24T13:08:43;17.73;;;10.67;;
9508;SDS011;4792;50.088;8.122;2023-02-24T13:11:21;20.57;;;10.13;;
9508;SDS011;4792;50.088;8.122;2023-02-24T13:13:55;18.63;;;11.20;;
9508;SDS011;4792;50.088;8.122;2023-02-24T13:16:28;20.50;;;10.80;;
9508;SDS011;4792;50.088;8.122;2023-02-24T13:19:04;18.70;;;10.97;;
9508;SDS011;4792;50.088;8.122;2023-02-24T13:21:32;17.20;;;9.87;;
9508;SDS011;4792;50.088;8.122;2023-02-24T13:24:01;19.07;;;10.50;;
9508;SDS011;4792;50.088;8.122;2023-02-24T13:26:30;20.87;;;10.77;;
9508;SDS011;4792;50.088;8.122;2023-02-24T13:28:59;17.23;;;10.47;;
9508;SDS011;4792;50.088;8.122;2023-02-24T13:31:38;18.70;;;10.53;;
9508;SDS011;4792;50.088;8.122;2023-02-24T13:34:12;19.43;;;10.20;;
9508;SDS011;4792;50.088;8.122;2023-02-24T13:36:45;17.37;;;10.37;;
9508;SDS011;4792;50.088;8.122;2023-02-24T13:39:20;16.13;;;9.87;;
9508;SDS011;4792;50.088;8.122;2023-02-24T13:41:59;14.43;;;8.77;;
9508;SDS011;4792;50.088;8.122;2023-02-24T13:44:29;17.23;;;8.77;;
9508;SDS011;4792;50.088;8.122;2023-02-24T13:47:05;15.77;;;7.87;;
9508;SDS011;4792;50.088;8.122;2023-02-24T13:50:09;12.23;;;7.80;;
9508;SDS011;4792;50.088;8.122;2023-02-24T13:53:00;11.67;;;7.40;;
9508;SDS011;4792;50.088;8.122;2023-02-24T13:58:30;13.90;;;8.27;;
9508;SDS011;4792;50.088;8.122;2023-02-24T14:01:15;18.07;;;8.23;;
9508;SDS011;4792;50.088;8.122;2023-02-24T14:03:45;13.40;;;7.13;;
9508;SDS011;4792;50.088;8.122;2023-02-24T14:06:17;11.27;;;7.47;;
9508;SDS011;4792;50.088;8.122;2023-02-24T14:08:49;13.40;;;7.60;;
9508;SDS011;4792;50.088;8.122;2023-02-24T14:11:20;16.13;;;7.77;;
9508;SDS011;4792;50.088;8.122;2023-02-24T14:13:53;10.77;;;6.43;;
9508;SDS011;4792;50.088;8.122;2023-02-24T14:16:22;11.77;;;7.17;;
9508;SDS011;4792;50.088;8.122;2023-02-24T14:18:53;13.20;;;7.23;;
9508;SDS011;4792;50.088;8.122;2023-02-24T14:21:22;12.40;;;6.87;;
9508;SDS011;4792;50.088;8.122;2023-02-24T14:23:55;15.13;;;6.80;;
9508;SDS011;4792;50.088;8.122;2023-02-24T14:26:23;13.93;;;7.10;;
9508;SDS011;4792;50.088;8.122;2023-02-24T14:28:54;13.00;;;6.63;;
9508;SDS011;4792;50.088;8.122;2023-02-24T14:31:23;13.23;;;6.37;;
9508;SDS011;4792;50.088;8.122;2023-02-24T14:33:53;10.00;;;6.07;;
9508;SDS011;4792;50.088;8.122;2023-02-24T14:36:23;8.83;;;5.40;;
9508;SDS011;4792;50.088;8.122;2023-02-24T14:39:00;10.70;;;5.53;;
9508;SDS011;4792;50.088;8.122;2023-02-24T14:41:29;10.23;;;5.30;;
9508;SDS011;4792;50.088;8.122;2023-02-24T14:44:03;9.53;;;5.27;;
9508;SDS011;4792;50.088;8.122;2023-02-24T14:46:32;9.33;;;4.77;;
9508;SDS011;4792;50.088;8.122;2023-02-24T14:49:00;11.47;;;5.23;;
9508;SDS011;4792;50.088;8.122;2023-02-24T14:51:29;8.90;;;4.80;;
9508;SDS011;4792;50.088;8.122;2023-02-24T14:54:00;10.17;;;4.67;;
9508;SDS011;4792;50.088;8.122;2023-02-24T14:56:31;8.50;;;4.70;;
9508;SDS011;4792;50.088;8.122;2023-02-24T14:59:04;7.40;;;4.67;;
9508;SDS011;4792;50.088;8.122;2023-02-24T15:01:35;9.10;;;4.57;;
9508;SDS011;4792;50.088;8.122;2023-02-24T15:04:09;7.17;;;3.97;;
9508;SDS011;4792;50.088;8.122;2023-02-24T15:06:39;8.23;;;4.23;;
9508;SDS011;4792;50.088;8.122;2023-02-24T15:09:11;7.30;;;4.40;;
9508;SDS011;4792;50.088;8.122;2023-02-24T15:11:40;6.40;;;4.33;;
9508;SDS011;4792;50.088;8.122;2023-02-24T15:14:16;9.27;;;4.27;;
9508;SDS011;4792;50.088;8.122;2023-02-24T15:16:46;6.77;;;4.10;;
9508;SDS011;4792;50.088;8.122;2023-02-24T15:19:20;7.27;;;3.90;;
9508;SDS011;4792;50.088;8.122;2023-02-24T15:21:51;6.57;;;4.10;;
9508;SDS011;4792;50.088;8.122;2023-02-24T15:24:23;7.47;;;3.90;;
9508;SDS011;4792;50.088;8.122;2023-02-24T15:26:53;8.50;;;3.47;;
9508;SDS011;4792;50.088;8.122;2023-02-24T15:29:24;5.13;;;3.53;;
9508;SDS011;4792;50.088;8.122;2023-02-24T15:31:53;7.77;;;3.47;;
9508;SDS011;4792;50.088;8.122;2023-02-24T15:34:23;7.10;;;3.73;;
9508;SDS011;4792;50.088;8.122;2023-02-24T15:36:54;6.80;;;3.80;;
9508;SDS011;4792;50.088;8.122;2023-02-24T15:39:26;6.80;;;4.20;;